Time;durP1;ratioP1;P1;durP2;ratioP2;P2;SDS_P1;SDS_P2;PMS_P1;PMS_P2;Temp;Humidity;BMP_temperature;BMP_pressure;BME280_temperature;BME280_humidity;BME280_pressure;Samples;Min_cycle;Max_cycle;Signal;HPM_P1;HPM_P2
2022/09/01 00:00:47;;;;;;;7.77;2.43;;;15.40;99.90;;;;;;4997430;28;20319;-75
2022/09/01 00:03:17;;;;;;;6.03;2.00;;;15.40;99.90;;;;;;4997504;28;20730;-75
2022/09/01 00:05:45;;;;;;;6.00;2.23;;;15.40;99.90;;;;;;4997397;28;20344;-75
2022/09/01 00:08:12;;;;;;;6.93;2.07;;;15.40;99.90;;;;;;4997141;28;20300;-75
2022/09/01 00:10:38;;;;;;;8.37;2.33;;;15.40;99.90;;;;;;4997253;28;20289;-76
2022/09/01 00:13:06;;;;;;;6.50;1.90;;;15.40;99.90;;;;;;4997842;28;20278;-75
2022/09/01 00:15:33;;;;;;;5.53;1.93;;;15.40;99.90;;;;;;4997020;28;20317;-75
2022/09/01 00:17:59;;;;;;;7.90;2.07;;;15.40;99.90;;;;;;4997103;28;20788;-75
2022/09/01 00:20:25;;;;;;;4.10;1.77;;;15.40;99.90;;;;;;4995905;28;20285;-76
2022/09/01 00:22:51;;;;;;;8.63;1.50;;;15.40;99.90;;;;;;4997112;28;20054;-76
2022/09/01 00:25:18;;;;;;;4.20;1.70;;;15.40;99.90;;;;;;4997018;28;20502;-76
2022/09/01 00:27:45;;;;;;;5.40;1.70;;;15.40;99.90;;;;;;4997563;28;20045;-76
2022/09/01 00:30:11;;;;;;;5.97;1.93;;;15.40;99.90;;;;;;4997004;28;20372;-75
2022/09/01 00:32:37;;;;;;;5.63;1.63;;;15.30;99.90;;;;;;4996452;28;20293;-75
2022/09/01 00:35:04;;;;;;;4.80;1.70;;;15.30;99.90;;;;;;4996843;28;20285;-76
2022/09/01 00:37:30;;;;;;;4.47;1.50;;;15.30;99.90;;;;;;4996827;28;20133;-75
2022/09/01 00:39:55;;;;;;;5.17;2.17;;;15.30;99.90;;;;;;4995383;28;20380;-75
2022/09/01 00:42:21;;;;;;;6.30;1.70;;;15.30;99.90;;;;;;4995210;28;20059;-75
2022/09/01 00:44:47;;;;;;;4.47;1.80;;;15.30;99.90;;;;;;4996336;28;20054;-75
2022/09/01 00:47:13;;;;;;;8.70;1.80;;;15.20;99.90;;;;;;4996967;28;20057;-75
2022/09/01 00:49:44;;;;;;;3.23;1.47;;;15.20;99.90;;;;;;4996591;28;20116;-75
2022/09/01 00:52:23;;;;;;;8.67;1.67;;;15.20;99.90;;;;;;4996197;28;20372;-75
2022/09/01 00:54:56;;;;;;;4.43;1.50;;;15.20;99.90;;;;;;4995578;28;20477;-76
2022/09/01 00:57:23;;;;;;;3.90;1.70;;;15.20;99.90;;;;;;4996534;28;20416;-75
2022/09/01 01:00:06;;;;;;;5.00;1.70;;;15.20;99.90;;;;;;4995188;28;20305;-76
2022/09/01 01:02:32;;;;;;;4.30;1.60;;;15.20;99.90;;;;;;4996876;28;20361;-75
2022/09/01 01:04:59;;;;;;;8.43;1.80;;;15.20;99.90;;;;;;4996444;28;20408;-75
2022/09/01 01:07:27;;;;;;;3.80;1.57;;;15.10;99.90;;;;;;4996789;28;20053;-75
2022/09/01 01:09:52;;;;;;;3.67;1.63;;;15.10;99.90;;;;;;4996206;28;20290;-75
2022/09/01 01:12:19;;;;;;;7.67;1.60;;;15.10;99.90;;;;;;4996134;28;20329;-75
2022/09/01 01:14:48;;;;;;;5.40;1.50;;;15.00;99.90;;;;;;4996096;28;20053;-76
2022/09/01 01:17:15;;;;;;;3.47;1.50;;;15.00;99.90;;;;;;4996079;28;20709;-75
2022/09/01 01:23:01;;;;;;;4.17;1.40;;;15.00;99.90;;;;;;4996852;28;20672;-75
2022/09/01 01:25:48;;;;;;;7.50;1.60;;;15.00;99.90;;;;;;4996006;28;20317;-75
2022/09/01 01:28:30;;;;;;;4.30;1.50;;;14.90;99.90;;;;;;4996462;28;20634;-75
2022/09/01 01:31:00;;;;;;;4.30;1.50;;;14.90;99.90;;;;;;4996350;28;20289;-75
2022/09/01 01:33:33;;;;;;;2.87;1.23;;;14.90;99.90;;;;;;4995745;28;20317;-75
2022/09/01 01:36:00;;;;;;;3.90;1.50;;;14.90;99.90;;;;;;4994871;28;20281;-75
2022/09/01 01:38:26;;;;;;;4.93;1.97;;;14.90;99.90;;;;;;4994112;28;20384;-75
2022/09/01 01:40:54;;;;;;;3.40;1.30;;;14.90;99.90;;;;;;4996094;28;20285;-76
2022/09/01 01:43:21;;;;;;;3.00;1.70;;;14.90;99.90;;;;;;4995637;28;20293;-76
2022/09/01 01:45:50;;;;;;;2.57;1.13;;;14.90;99.90;;;;;;4994569;28;20372;-76
2022/09/01 01:48:21;;;;;;;4.17;1.20;;;14.90;99.90;;;;;;4995960;28;20734;-75
2022/09/01 01:50:48;;;;;;;4.37;1.27;;;14.80;99.90;;;;;;4996107;28;20662;-75
2022/09/01 01:53:17;;;;;;;3.13;1.40;;;14.80;99.90;;;;;;4994253;28;20282;-76
2022/09/01 01:55:43;;;;;;;5.07;1.70;;;14.80;99.90;;;;;;4995430;28;20285;-76
2022/09/01 01:58:13;;;;;;;2.90;1.30;;;14.80;99.90;;;;;;4995222;28;20340;-76
2022/09/01 02:00:43;;;;;;;5.80;1.40;;;;;;;;;;4995852;28;20049;-75
2022/09/01 02:03:11;;;;;;;4.03;1.50;;;14.80;99.90;;;;;;4995244;28;20273;-75
2022/09/01 02:05:38;;;;;;;3.20;1.30;;;14.80;99.90;;;;;;4994207;28;20285;-75
2022/09/01 02:08:07;;;;;;;2.93;1.50;;;14.80;99.90;;;;;;4995073;28;20289;-75
2022/09/01 02:10:37;;;;;;;2.23;1.43;;;14.80;99.90;;;;;;4993849;28;20851;-75
2022/09/01 02:13:06;;;;;;;3.13;1.30;;;14.80;99.90;;;;;;4995342;28;20805;-75
2022/09/01 02:15:47;;;;;;;3.70;1.40;;;14.70;99.90;;;;;;4994062;28;20289;-75
2022/09/01 02:18:17;;;;;;;2.63;1.27;;;14.70;99.90;;;;;;4995715;28;20352;-75
2022/09/01 02:20:48;;;;;;;4.37;1.40;;;14.70;99.90;;;;;;4995131;28;20305;-75
2022/09/01 02:23:16;;;;;;;4.00;1.50;;;14.70;99.90;;;;;;4995661;28;20278;-75
2022/09/01 02:25:44;;;;;;;4.43;1.73;;;14.70;99.90;;;;;;4993855;28;20630;-75
2022/09/01 02:28:15;;;;;;;3.50;1.17;;;14.70;99.90;;;;;;4994774;28;20282;-75
2022/09/01 02:30:50;;;;;;;2.57;1.40;;;14.60;99.90;;;;;;4993796;28;20614;-75
2022/09/01 02:33:19;;;;;;;;;;;14.60;99.90;;;;;;4995172;28;20270;-75
2022/09/01 02:35:46;;;;;;;2.63;1.40;;;14.60;99.90;;;;;;4994637;28;20398;-75
2022/09/01 02:38:13;;;;;;;7.27;1.70;;;14.60;99.90;;;;;;4994778;28;20281;-74
2022/09/01 02:40:44;;;;;;;4.20;1.33;;;14.60;99.90;;;;;;4994528;28;20340;-75
2022/09/01 02:43:13;;;;;;;3.07;1.70;;;14.60;99.90;;;;;;4994861;28;20282;-75
2022/09/01 02:45:43;;;;;;;4.30;1.47;;;14.60;99.90;;;;;;4995245;28;20285;-75
2022/09/01 02:48:09;;;;;;;3.47;1.60;;;14.60;99.90;;;;;;4994389;28;20281;-75
2022/09/01 02:50:36;;;;;;;4.07;1.47;;;14.60;99.90;;;;;;4994674;28;20285;-75
2022/09/01 02:53:05;;;;;;;4.17;1.40;;;14.60;99.90;;;;;;4994331;28;20281;-76
2022/09/01 02:55:31;;;;;;;2.47;1.23;;;14.60;99.90;;;;;;4994371;28;20289;-75
2022/09/01 02:57:57;;;;;;;4.17;1.30;;;14.60;99.90;;;;;;4994332;28;20278;-75
2022/09/01 03:00:30;;;;;;;5.87;1.87;;;14.50;99.90;;;;;;4994684;28;20301;-75
2022/09/01 03:03:00;;;;;;;4.00;1.60;;;14.50;99.90;;;;;;4994879;28;20042;-76
2022/09/01 03:05:29;;;;;;;3.70;1.50;;;14.50;99.90;;;;;;4994229;28;20335;-75
2022/09/01 03:08:01;;;;;;;5.50;1.73;;;14.50;99.90;;;;;;4993859;28;20773;-75
2022/09/01 03:10:34;;;;;;;3.10;1.53;;;14.50;99.90;;;;;;4993491;28;20285;-75
2022/09/01 03:13:10;;;;;;;4.03;1.77;;;14.50;99.90;;;;;;4994703;28;20278;-76
2022/09/01 03:15:37;;;;;;;3.87;1.53;;;14.50;99.90;;;;;;4993825;28;20292;-75
2022/09/01 03:18:05;;;;;;;3.20;1.67;;;14.50;99.90;;;;;;4993707;28;20292;-75
2022/09/01 03:20:33;;;;;;;3.00;1.30;;;14.40;99.90;;;;;;4994311;28;20293;-75
2022/09/01 03:23:05;;;;;;;5.40;1.73;;;14.50;99.90;;;;;;4994011;28;20325;-76
2022/09/01 03:25:32;;;;;;;4.50;1.80;;;14.40;99.90;;;;;;4994539;28;20274;-75
2022/09/01 03:28:00;;;;;;;3.23;1.53;;;14.40;99.90;;;;;;4993949;28;20283;-76
2022/09/01 03:30:28;;;;;;;4.43;2.00;;;14.40;99.90;;;;;;4993914;28;20336;-76
2022/09/01 03:32:59;;;;;;;4.30;1.73;;;14.40;99.90;;;;;;4994183;28;20280;-76
2022/09/01 03:35:27;;;;;;;3.50;1.60;;;14.40;99.90;;;;;;4994493;28;20288;-75
2022/09/01 03:37:54;;;;;;;3.33;1.70;;;14.40;99.90;;;;;;4993991;28;20282;-76
2022/09/01 03:40:20;;;;;;;6.27;1.93;;;14.50;99.90;;;;;;4993785;28;20307;-76
2022/09/01 03:42:46;;;;;;;4.23;1.67;;;14.40;99.90;;;;;;4993805;28;20321;-76
2022/09/01 03:45:15;;;;;;;4.23;1.80;;;14.40;99.90;;;;;;4992655;28;20324;-75
2022/09/01 03:47:42;;;;;;;3.77;1.70;;;14.40;99.90;;;;;;4993807;28;20085;-75
2022/09/01 03:50:20;;;;;;;3.47;1.63;;;14.30;99.90;;;;;;4992817;28;20289;-75
2022/09/01 03:52:53;;;;;;;4.83;1.67;;;14.30;99.90;;;;;;4993859;28;20760;-75
2022/09/01 03:55:23;;;;;;;3.17;1.53;;;14.30;99.90;;;;;;4994039;28;20306;-75
2022/09/01 03:57:59;;;;;;;6.80;1.90;;;14.30;99.90;;;;;;4993720;28;20281;-75
2022/09/01 04:00:28;;;;;;;2.60;1.30;;;14.20;99.90;;;;;;4994186;28;20384;-75
2022/09/01 04:02:57;;;;;;;4.83;1.50;;;14.20;99.90;;;;;;4994019;28;20286;-75
2022/09/01 04:05:27;;;;;;;4.53;1.70;;;14.20;99.90;;;;;;4992470;28;20285;-75
2022/09/01 04:08:01;;;;;;;2.53;1.40;;;14.20;99.90;;;;;;4993470;28;20755;-75
2022/09/01 04:10:27;;;;;;;3.13;1.30;;;14.20;99.90;;;;;;4992882;28;20297;-75
2022/09/01 04:12:58;;;;;;;4.23;1.63;;;14.20;99.90;;;;;;4993594;28;20281;-75
2022/09/01 04:15:25;;;;;;;3.80;1.60;;;14.20;99.90;;;;;;4993798;28;20502;-75
2022/09/01 04:18:08;;;;;;;2.50;1.50;;;14.20;99.90;;;;;;4993583;28;20361;-75
2022/09/01 04:20:47;;;;;;;6.73;1.90;;;14.20;99.90;;;;;;4993215;28;20297;-76
2022/09/01 04:23:25;;;;;;;5.17;1.60;;;14.20;99.90;;;;;;4993492;28;20293;-76
2022/09/01 04:25:55;;;;;;;3.17;1.50;;;14.20;99.90;;;;;;4993529;28;20281;-76
2022/09/01 04:28:23;;;;;;;4.50;1.50;;;14.10;99.90;;;;;;4994398;28;20284;-76
2022/09/01 04:30:55;;;;;;;5.20;1.60;;;14.20;99.90;;;;;;4997487;28;20289;-76
2022/09/01 04:33:26;;;;;;;3.57;1.60;;;14.10;99.90;;;;;;4995660;28;20373;-75
2022/09/01 04:35:55;;;;;;;4.70;1.60;;;14.10;99.90;;;;;;4996895;28;20313;-76
2022/09/01 04:38:23;;;;;;;6.23;1.30;;;14.10;99.90;;;;;;4997227;28;20587;-75
2022/09/01 04:40:50;;;;;;;4.83;1.60;;;14.10;99.90;;;;;;4996896;28;20277;-75
2022/09/01 04:43:16;;;;;;;4.73;1.43;;;14.10;99.90;;;;;;4997227;28;20293;-76
2022/09/01 04:45:44;;;;;;;3.30;1.53;;;14.10;99.90;;;;;;4996708;28;20284;-75
2022/09/01 04:48:10;;;;;;;4.37;1.70;;;14.10;99.90;;;;;;4996613;28;20273;-76
2022/09/01 04:50:39;;;;;;;6.83;1.93;;;14.10;99.90;;;;;;4997099;28;20289;-76
2022/09/01 04:53:06;;;;;;;3.00;1.60;;;14.10;99.90;;;;;;4996563;28;20482;-76
2022/09/01 04:55:31;;;;;;;4.87;1.40;;;14.10;99.90;;;;;;4997349;28;20284;-75
2022/09/01 04:58:00;;;;;;;6.47;1.63;;;14.10;99.90;;;;;;4996471;28;20852;-75
2022/09/01 05:00:30;;;;;;;3.10;1.60;;;14.10;99.90;;;;;;4996339;28;20046;-75
2022/09/01 05:03:04;;;;;;;5.27;1.63;;;14.10;99.90;;;;;;4995388;28;20294;-75
2022/09/01 05:05:42;;;;;;;3.50;1.70;;;14.10;99.90;;;;;;4996836;28;20278;-75
2022/09/01 05:08:15;;;;;;;5.30;1.80;;;14.10;99.90;;;;;;4995508;28;20297;-75
2022/09/01 05:10:44;;;;;;;10.27;1.63;;;14.10;99.90;;;;;;4996321;28;20274;-75
2022/09/01 05:13:11;;;;;;;4.00;1.77;;;14.10;99.90;;;;;;4996164;28;20285;-75
2022/09/01 05:15:45;;;;;;;3.53;1.77;;;14.10;99.90;;;;;;4995961;28;20289;-75
2022/09/01 05:18:13;;;;;;;4.47;2.40;;;14.10;99.90;;;;;;4995407;28;20600;-76
2022/09/01 05:20:42;;;;;;;4.23;2.00;;;14.10;99.90;;;;;;4995982;28;20781;-75
2022/09/01 05:23:11;;;;;;;4.70;1.70;;;14.00;99.90;;;;;;4995991;28;20285;-75
2022/09/01 05:25:42;;;;;;;7.13;2.47;;;14.00;99.90;;;;;;4996738;28;20348;-75
2022/09/01 05:28:11;;;;;;;6.60;2.70;;;14.00;99.90;;;;;;4995988;28;20311;-75
2022/09/01 05:30:38;;;;;;;6.60;1.90;;;14.00;99.90;;;;;;4994902;28;20312;-75
2022/09/01 05:33:09;;;;;;;4.37;1.63;;;14.00;99.90;;;;;;4995861;28;20278;-75
2022/09/01 05:35:42;;;;;;;5.17;2.07;;;14.10;99.90;;;;;;4995823;28;20270;-75
2022/09/01 05:38:12;;;;;;;4.40;2.10;;;14.10;99.90;;;;;;4996160;28;20360;-75
2022/09/01 05:40:42;;;;;;;4.30;2.07;;;14.10;99.90;;;;;;4995628;28;20278;-78
2022/09/01 05:43:13;;;;;;;4.67;1.90;;;14.10;99.90;;;;;;4995710;28;20287;-76
2022/09/01 05:45:42;;;;;;;4.57;1.90;;;14.10;99.90;;;;;;4995572;28;20289;-75
2022/09/01 05:48:19;;;;;;;2.73;1.60;;;14.10;99.90;;;;;;4996031;28;20328;-74
2022/09/01 05:50:45;;;;;;;4.83;2.00;;;14.20;99.90;;;;;;4995542;28;20340;-75
2022/09/01 05:53:16;;;;;;;4.67;1.50;;;14.20;99.90;;;;;;4994394;28;20482;-75
2022/09/01 05:55:47;;;;;;;6.17;2.20;;;14.30;99.90;;;;;;4995616;28;20653;-75
2022/09/01 05:58:15;;;;;;;4.23;2.03;;;14.30;99.90;;;;;;4995209;28;20360;-75
2022/09/01 06:00:50;;;;;;;5.40;2.20;;;14.30;99.90;;;;;;4994283;28;20321;-76
2022/09/01 06:03:17;;;;;;;5.40;1.88;;;14.40;99.90;;;;;;4995612;28;20278;-76
2022/09/01 06:05:47;;;;;;;3.80;1.60;;;14.50;99.90;;;;;;4995749;28;20050;-76
2022/09/01 06:08:13;;;;;;;6.00;1.70;;;14.60;99.90;;;;;;4995955;28;20301;-75
2022/09/01 06:10:40;;;;;;;4.73;2.10;;;14.60;99.90;;;;;;4994981;28;20297;-76
2022/09/01 06:13:13;;;;;;;7.77;2.00;;;14.70;99.90;;;;;;4993793;28;20615;-75
2022/09/01 06:15:38;;;;;;;3.03;1.70;;;14.90;99.90;;;;;;4995035;28;20293;-76
2022/09/01 06:18:06;;;;;;;3.87;2.00;;;15.70;99.90;;;;;;4995070;28;20288;-75
2022/09/01 06:20:32;;;;;;;3.57;1.70;;;17.00;99.90;;;;;;4994496;28;20098;-78
2022/09/01 06:22:59;;;;;;;3.60;1.63;;;18.50;99.90;;;;;;4995076;28;20754;-78
2022/09/01 06:25:29;;;;;;;3.37;1.93;;;19.80;99.90;;;;;;4993610;28;20758;-76
2022/09/01 06:27:56;;;;;;;4.47;1.60;;;21.00;99.90;;;;;;4995136;28;20421;-75
2022/09/01 06:30:25;;;;;;;3.00;1.60;;;21.60;99.90;;;;;;4994592;28;20086;-75
2022/09/01 06:32:52;;;;;;;3.47;1.90;;;22.70;90.20;;;;;;4994473;28;20038;-75
2022/09/01 06:35:19;;;;;;;5.30;1.57;;;22.80;94.50;;;;;;4994944;28;20054;-75
2022/09/01 06:37:47;;;;;;;5.30;1.97;;;23.30;89.00;;;;;;4994572;28;20047;-75
2022/09/01 06:40:18;;;;;;;5.53;2.07;;;;;;;;;;4994541;28;20495;-75
2022/09/01 06:42:49;;;;;;;4.70;2.20;;;24.40;76.40;;;;;;4994604;28;20054;-76
2022/09/01 06:45:16;;;;;;;7.40;2.00;;;;;;;;;;4995378;28;20057;-75
2022/09/01 06:47:43;;;;;;;5.73;1.70;;;;;;;;;;4994341;28;20046;-76
2022/09/01 06:50:13;;;;;;;6.13;1.77;;;24.70;61.30;;;;;;4994333;28;20047;-75
2022/09/01 06:52:41;;;;;;;4.13;1.60;;;;;;;;;;4994099;28;20481;-75
2022/09/01 06:55:07;;;;;;;3.07;1.70;;;;;;;;;;4994431;28;20050;-75
2022/09/01 06:57:34;;;;;;;6.43;2.03;;;;;;;;;;4994551;28;20050;-76
2022/09/01 07:00:06;;;;;;;5.13;1.87;;;25.70;56.30;;;;;;4994786;28;20513;-76
2022/09/01 07:02:32;;;;;;;3.67;1.70;;;25.90;60.20;;;;;;4993542;28;20054;-76
2022/09/01 07:04:58;;;;;;;4.40;1.70;;;26.10;59.20;;;;;;4993909;28;20050;-76
2022/09/01 07:07:26;;;;;;;4.13;1.63;;;26.10;57.30;;;;;;4994195;28;20132;-76
2022/09/01 07:09:52;;;;;;;5.80;2.23;;;26.50;57.10;;;;;;4994158;28;20046;-76
2022/09/01 07:12:19;;;;;;;4.07;1.47;;;26.70;56.00;;;;;;4994478;28;20057;-76
2022/09/01 07:14:48;;;;;;;2.83;1.73;;;27.00;54.60;;;;;;4994115;28;20495;-76
2022/09/01 07:17:14;;;;;;;3.40;1.63;;;26.30;54.00;;;;;;4994139;28;20047;-76
2022/09/01 07:19:40;;;;;;;5.77;1.80;;;25.10;52.70;;;;;;4993822;28;20065;-75
2022/09/01 07:22:05;;;;;;;4.63;1.70;;;24.20;56.60;;;;;;4994067;28;20054;-76
2022/09/01 07:24:32;;;;;;;6.40;1.73;;;23.90;58.40;;;;;;4994533;28;20051;-76
2022/09/01 07:26:58;;;;;;;4.57;1.50;;;24.20;59.90;;;;;;4994557;28;20093;-76
2022/09/01 07:29:25;;;;;;;4.10;1.80;;;24.50;58.50;;;;;;4993079;28;20082;-76
2022/09/01 07:31:54;;;;;;;2.93;1.63;;;24.70;57.80;;;;;;4993677;28;20038;-76
2022/09/01 07:34:21;;;;;;;5.33;2.10;;;25.50;58.00;;;;;;4993962;28;20133;-76
2022/09/01 07:36:47;;;;;;;3.50;1.63;;;26.10;66.00;;;;;;4992756;28;20046;-82
2022/09/01 07:39:13;;;;;;;3.60;1.70;;;26.90;55.10;;;;;;4992752;28;20046;-76
2022/09/01 07:41:40;;;;;;;4.37;1.60;;;27.50;54.00;;;;;;4993842;28;20479;-77
2022/09/01 07:44:09;;;;;;;3.67;1.83;;;27.90;52.60;;;;;;4994637;28;20454;-75
2022/09/01 07:46:35;;;;;;;3.00;1.77;;;28.10;50.80;;;;;;4993849;28;20050;-77
2022/09/01 07:49:01;;;;;;;4.23;1.80;;;27.80;49.90;;;;;;4993814;28;20105;-76
2022/09/01 07:51:28;;;;;;;4.60;1.60;;;;;;;;;;4992292;28;20487;-76
2022/09/01 07:53:55;;;;;;;6.33;1.80;;;27.40;49.20;;;;;;4993456;28;20510;-76
2022/09/01 07:56:22;;;;;;;3.80;1.90;;;;;;;;;;4992810;28;20042;-73
2022/09/01 07:58:49;;;;;;;4.80;2.53;;;;;;;;;;4993571;28;20049;-78
2022/09/01 08:01:17;;;;;;;4.80;1.50;;;25.30;87.60;;;;;;4993658;28;20046;-75
2022/09/01 08:03:46;;;;;;;4.97;2.10;;;24.40;54.30;;;;;;4995073;28;20491;-70
2022/09/01 08:06:13;;;;;;;4.70;1.70;;;23.80;56.90;;;;;;4997706;28;20046;-72
2022/09/01 08:08:40;;;;;;;2.57;1.57;;;23.30;57.20;;;;;;4997369;28;20050;-71
2022/09/01 08:11:06;;;;;;;3.10;1.60;;;;;;;;;;4996462;28;20038;-71
2022/09/01 08:13:36;;;;;;;7.20;1.70;;;22.60;60.60;;;;;;4996371;28;20193;-78
2022/09/01 08:16:04;;;;;;;3.93;1.63;;;22.40;62.80;;;;;;4997365;28;20046;-76
2022/09/01 08:18:30;;;;;;;4.60;1.97;;;22.10;65.50;;;;;;4997176;28;20056;-79
2022/09/01 08:20:56;;;;;;;4.33;1.70;;;22.10;67.60;;;;;;4997722;28;20186;-78
2022/09/01 08:23:25;;;;;;;4.50;1.60;;;21.90;69.30;;;;;;4996496;28;20459;-79
2022/09/01 08:25:51;;;;;;;4.63;1.60;;;22.00;71.90;;;;;;4996438;28;20054;-81
2022/09/01 08:28:17;;;;;;;4.03;1.73;;;21.90;71.10;;;;;;4979871;28;20060;-81
2022/09/01 08:30:44;;;;;;;3.07;1.50;;;21.80;71.10;;;;;;4996960;28;20050;-80
2022/09/01 08:33:12;;;;;;;3.77;1.60;;;21.70;72.60;;;;;;4996943;28;20150;-84
2022/09/01 08:35:42;;;;;;;4.73;1.70;;;21.70;72.70;;;;;;4979947;28;20109;-84
2022/09/01 08:38:09;;;;;;;5.43;1.67;;;21.60;73.50;;;;;;4996851;28;20054;-77
2022/09/01 08:40:35;;;;;;;4.77;1.90;;;21.60;74.00;;;;;;4979293;28;20626;-74
2022/09/01 08:43:17;;;;;;;3.10;1.60;;;21.60;74.80;;;;;;4996858;28;20085;-74
2022/09/01 08:46:26;;;;;;;3.93;1.80;;;21.50;74.70;;;;;;4996571;28;20057;-75
2022/09/01 08:48:56;;;;;;;4.03;1.90;;;21.30;76.10;;;;;;4986456;28;20054;-74
2022/09/01 08:51:36;;;;;;;5.87;1.97;;;21.30;77.70;;;;;;4996630;28;20057;-74
2022/09/01 08:54:26;;;;;;;5.07;1.80;;;21.20;78.70;;;;;;4997098;28;20073;-75
2022/09/01 08:57:00;;;;;;;5.00;2.10;;;21.30;79.90;;;;;;4996711;28;20061;-74
2022/09/01 08:59:27;;;;;;;5.93;1.95;;;21.30;81.10;;;;;;4996531;28;20046;-74
2022/09/01 09:02:23;;;;;;;4.37;1.80;;;21.30;79.70;;;;;;4996237;28;20181;-74
2022/09/01 09:05:04;;;;;;;4.60;1.80;;;21.30;82.60;;;;;;4996134;28;20552;-75
2022/09/01 09:07:35;;;;;;;6.13;2.30;;;21.40;82.40;;;;;;4996405;28;20501;-74
2022/09/01 09:10:23;;;;;;;3.60;1.60;;;21.40;81.20;;;;;;4996309;28;20074;-75
2022/09/01 09:13:07;;;;;;;4.33;1.70;;;21.40;80.40;;;;;;4996511;28;20061;-74
2022/09/01 09:15:43;;;;;;;3.00;1.58;;;21.30;78.80;;;;;;4995737;28;20050;-74
2022/09/01 09:18:36;;;;;;;3.13;1.60;;;21.20;78.80;;;;;;4996420;28;20376;-74
2022/09/01 09:21:12;;;;;;;4.77;1.93;;;21.20;78.20;;;;;;4988024;28;20080;-74
2022/09/01 09:23:42;;;;;;;3.37;1.67;;;21.30;76.20;;;;;;4995845;28;20470;-75
2022/09/01 09:26:08;;;;;;;4.53;1.70;;;21.20;77.30;;;;;;4995398;28;20054;-75
2022/09/01 09:28:33;;;;;;;3.90;1.50;;;21.20;76.80;;;;;;4996713;28;20112;-74
2022/09/01 09:31:42;;;;;;;3.83;1.70;;;21.20;76.70;;;;;;4994970;28;20042;-74
2022/09/01 09:34:32;;;;;;;4.20;1.77;;;21.20;76.70;;;;;;4996367;28;20463;-74
2022/09/01 09:37:22;;;;;;;4.47;1.67;;;21.30;77.80;;;;;;4995401;28;20573;-75
2022/09/01 09:40:09;;;;;;;6.23;1.80;;;21.40;76.20;;;;;;4994584;28;20498;-75
2022/09/01 09:42:41;;;;;;;4.63;1.30;;;21.40;75.80;;;;;;4995984;28;20050;-82
2022/09/01 09:45:21;;;;;;;4.30;1.43;;;21.50;74.70;;;;;;4995425;28;20050;-73
2022/09/01 09:47:47;;;;;;;3.53;1.40;;;21.50;74.80;;;;;;4994438;28;20104;-72
2022/09/01 09:50:16;;;;;;;4.23;1.30;;;21.50;74.00;;;;;;4995112;28;20129;-73
2022/09/01 09:52:45;;;;;;;3.13;1.20;;;21.50;71.70;;;;;;4994833;28;20085;-73
2022/09/01 09:55:25;;;;;;;2.53;1.20;;;21.60;70.10;;;;;;4994695;28;20155;-73
2022/09/01 09:57:57;;;;;;;4.27;1.50;;;21.60;70.00;;;;;;4994617;28;20046;-73
2022/09/01 10:00:34;;;;;;;3.43;1.60;;;21.60;69.80;;;;;;4994572;28;20049;-74
2022/09/01 10:03:07;;;;;;;4.73;1.30;;;21.60;69.00;;;;;;4994339;28;20050;-73
2022/09/01 10:05:47;;;;;;;4.00;1.40;;;21.70;68.30;;;;;;4994738;28;20046;-73
2022/09/01 10:08:35;;;;;;;5.97;1.33;;;21.70;66.80;;;;;;4994454;28;20061;-73
2022/09/01 10:11:03;;;;;;;3.60;1.50;;;21.80;65.50;;;;;;4994752;28;20177;-72
2022/09/01 10:13:31;;;;;;;5.27;1.60;;;21.70;66.20;;;;;;4994327;28;20544;-73
2022/09/01 10:16:14;;;;;;;3.20;1.37;;;21.70;63.10;;;;;;4994250;28;20088;-74
2022/09/01 10:18:44;;;;;;;3.17;1.40;;;21.70;63.10;;;;;;4994171;28;20042;-73
2022/09/01 10:21:24;;;;;;;1.83;1.20;;;21.70;63.30;;;;;;4993823;28;20058;-72
2022/09/01 10:23:50;;;;;;;3.73;1.13;;;21.80;62.20;;;;;;4994831;28;20120;-72
2022/09/01 10:26:34;;;;;;;4.97;1.40;;;21.90;60.30;;;;;;4993921;28;20042;-73
2022/09/01 10:29:23;;;;;;;3.80;1.60;;;22.00;60.40;;;;;;4994086;28;20061;-72
2022/09/01 10:31:50;;;;;;;2.80;1.30;;;22.00;60.90;;;;;;4993869;28;20051;-73
2022/09/01 10:34:18;;;;;;;4.03;1.33;;;22.20;59.50;;;;;;4994278;28;20065;-72
2022/09/01 10:36:45;;;;;;;3.43;1.40;;;22.30;58.90;;;;;;4993536;28;20355;-73
2022/09/01 10:39:13;;;;;;;4.37;1.20;;;22.40;57.70;;;;;;4993770;28;20081;-73
2022/09/01 10:41:49;;;;;;;5.97;1.40;;;22.40;57.00;;;;;;4993389;28;20601;-73
2022/09/01 10:44:54;;;;;;;3.17;1.27;;;22.40;55.80;;;;;;4993742;28;20081;-73
2022/09/01 10:47:32;;;;;;;5.40;1.20;;;22.40;55.20;;;;;;4993760;28;20546;-72
2022/09/01 10:49:57;;;;;;;2.17;1.20;;;22.50;54.20;;;;;;4994380;28;20045;-74
2022/09/01 10:52:41;;;;;;;5.43;1.23;;;22.60;52.50;;;;;;4994484;28;20054;-72
2022/09/01 10:55:23;;;;;;;4.40;1.20;;;22.70;52.20;;;;;;4994322;28;20048;-72
2022/09/01 10:58:18;;;;;;;2.00;1.10;;;22.60;52.60;;;;;;4994335;28;20056;-74
2022/09/01 11:00:47;;;;;;;5.85;1.30;;;22.60;52.70;;;;;;4994561;28;20379;-74
2022/09/01 11:03:14;;;;;;;2.03;1.10;;;22.70;52.50;;;;;;4994288;28;20050;-74
2022/09/01 11:05:57;;;;;;;2.20;1.00;;;22.60;52.00;;;;;;4994226;28;20521;-74
2022/09/01 11:08:26;;;;;;;3.63;1.20;;;22.60;52.40;;;;;;4994029;28;20057;-74
2022/09/01 11:11:24;;;;;;;3.40;1.13;;;22.50;51.60;;;;;;4994701;28;20355;-75
2022/09/01 11:13:53;;;;;;;2.80;1.20;;;22.40;52.30;;;;;;4994488;28;20398;-74
2022/09/01 11:16:40;;;;;;;2.10;1.10;;;22.40;52.20;;;;;;4994131;28;20058;-73
2022/09/01 11:19:23;;;;;;;2.27;1.00;;;22.40;51.80;;;;;;4992601;28;20042;-76
2022/09/01 11:22:12;;;;;;;5.27;1.30;;;22.40;52.10;;;;;;4993682;28;20125;-75
2022/09/01 11:24:37;;;;;;;3.73;1.57;;;22.40;52.60;;;;;;4993327;28;20049;-75
2022/09/01 11:27:44;;;;;;;2.53;1.23;;;22.30;52.10;;;;;;4993231;28;20046;-75
2022/09/01 11:30:24;;;;;;;4.07;1.40;;;22.40;52.30;;;;;;4972816;28;20138;-75
2022/09/01 11:33:10;;;;;;;5.53;1.30;;;22.30;52.50;;;;;;4993483;28;20042;-75
2022/09/01 11:35:36;;;;;;;3.77;1.03;;;22.20;52.60;;;;;;4992978;28;20395;-75
2022/09/01 11:38:06;;;;;;;3.87;1.30;;;22.30;53.10;;;;;;4995434;28;20046;-74
2022/09/01 11:40:33;;;;;;;5.53;1.47;;;22.40;53.60;;;;;;4996216;28;20053;-74
2022/09/01 11:43:06;;;;;;;6.33;1.40;;;22.40;53.50;;;;;;4997180;28;20497;-74
2022/09/01 11:45:41;;;;;;;2.90;1.30;;;22.40;53.70;;;;;;4996787;28;20046;-75
2022/09/01 11:48:10;;;;;;;3.85;1.58;;;22.50;53.20;;;;;;4996530;28;20383;-76
2022/09/01 11:50:41;;;;;;;3.90;1.53;;;22.40;53.00;;;;;;4997112;28;20084;-74
2022/09/01 11:53:13;;;;;;;4.13;1.20;;;22.50;52.80;;;;;;4996889;28;20061;-74
2022/09/01 11:55:44;;;;;;;5.40;1.33;;;22.50;52.40;;;;;;4997085;28;20061;-75
2022/09/01 11:58:33;;;;;;;4.03;1.20;;;22.50;52.10;;;;;;4996844;28;20422;-74
2022/09/01 12:01:22;;;;;;;3.13;1.20;;;22.70;52.50;;;;;;4996937;28;20056;-76
2022/09/01 12:03:50;;;;;;;2.73;1.20;;;22.80;52.10;;;;;;4997003;28;20042;-75
2022/09/01 12:06:25;;;;;;;6.57;1.10;;;22.80;51.90;;;;;;4996673;28;20050;-75
2022/09/01 12:09:01;;;;;;;3.43;1.50;;;22.70;51.50;;;;;;4995652;28;20427;-77
2022/09/01 12:11:30;;;;;;;3.13;1.27;;;22.60;51.70;;;;;;4996689;28;20047;-77
2022/09/01 12:14:06;;;;;;;3.60;1.30;;;22.50;52.10;;;;;;4996567;28;20043;-75
2022/09/01 12:16:35;;;;;;;5.67;1.23;;;22.50;52.30;;;;;;4996735;28;20046;-77
2022/09/01 12:19:02;;;;;;;4.03;1.20;;;22.40;52.30;;;;;;4996060;28;20068;-78
2022/09/01 12:21:41;;;;;;;4.53;1.30;;;22.40;52.60;;;;;;4996963;28;20091;-78
2022/09/01 12:24:23;;;;;;;6.33;1.60;;;22.50;51.30;;;;;;4996533;28;20487;-76
2022/09/01 12:26:57;;;;;;;2.37;1.00;;;22.60;51.20;;;;;;4996689;28;20089;-77
2022/09/01 12:29:24;;;;;;;3.05;1.33;;;22.50;51.50;;;;;;4996414;28;20082;-76
2022/09/01 12:31:51;;;;;;;3.87;1.40;;;22.50;51.70;;;;;;4996341;28;20057;-74
2022/09/01 12:34:32;;;;;;;3.47;1.37;;;22.30;51.50;;;;;;4996691;28;20050;-73
2022/09/01 12:37:11;;;;;;;3.33;1.40;;;22.40;51.50;;;;;;4996116;28;20090;-74
2022/09/01 12:39:49;;;;;;;3.07;1.27;;;22.40;51.70;;;;;;4996118;28;20467;-74
2022/09/01 12:42:20;;;;;;;2.50;0.93;;;22.60;51.10;;;;;;4996110;28;20050;-74
2022/09/01 12:45:07;;;;;;;2.03;1.10;;;22.70;51.60;;;;;;4995196;28;20368;-74
2022/09/01 12:47:32;;;;;;;2.67;1.40;;;22.70;51.40;;;;;;4994268;28;20042;-74
2022/09/01 12:50:18;;;;;;;5.57;1.37;;;22.70;50.70;;;;;;4995234;28;20077;-73
2022/09/01 12:52:52;;;;;;;2.57;1.07;;;22.70;50.00;;;;;;4996526;28;20046;-72
2022/09/01 12:55:27;;;;;;;3.72;1.20;;;22.60;50.50;;;;;;4996311;28;20558;-74
2022/09/01 12:57:56;;;;;;;3.10;1.35;;;22.60;49.90;;;;;;4997090;28;20407;-76
2022/09/01 13:00:30;;;;;;;3.80;1.20;;;22.60;50.00;;;;;;4996354;28;20093;-74
2022/09/01 13:02:56;;;;;;;3.20;1.20;;;22.60;49.90;;;;;;4996839;28;20065;-74
2022/09/01 13:05:29;;;;;;;2.07;1.00;;;22.70;49.80;;;;;;4996406;28;20380;-75
2022/09/01 13:07:58;;;;;;;1.77;1.00;;;22.70;49.60;;;;;;4995410;28;20050;-74
2022/09/01 13:10:27;;;;;;;3.23;1.27;;;22.90;50.00;;;;;;4996546;28;20074;-73
2022/09/01 13:12:54;;;;;;;3.53;1.23;;;23.00;49.10;;;;;;4995860;28;20081;-73
2022/09/01 13:15:20;;;;;;;3.80;1.40;;;23.10;48.90;;;;;;4995873;28;20513;-73